Portada
METAR-TAF:

METAR-TAF

Aeroports :

Colmar, França

latitud: 48-06-37N, longitud: 7-21-33E, altitud: 191 m

Observació

L'informe es va fer fa 40 minuts, a les 22:00 UTC
Vent 6 kt del Oest
Temperatura 26°C
Humitat 51%
Pressió 1016 hPa
Visibilitat 10 km o més
sense núvols per sota de 1500 mi sense presència de cumulonimbus.

METAR: LFGA 232200Z AUTO 28006KT CAVOK 26/15 Q1016

Hora: 00:40 (22:40 UTC)


TAF: manca

Observacions i pronòstics meteorològics de més de 4000 aeroports (METAR i TAF).

Les estacions disponibles són els punts grocs i vermells al mapa.

Posi el ratolí al punt desitjat per veure el nom de l'estació.

Feu clic per veure les observacions i els pronòstics meteorològics.

Per canviar el mapa: feu clic els botons verds amb una creu de color negre per apropar; al botó verd amb un guió per allunyar la imatge; o en les fletxes verdes per a mapes adjacents.


METAR-TAF: